Portada
METAR-TAF:

METAR-TAF

Aeropuertos :

Aeropuerto Internacional Fua'amotu

Tongatapu, Tonga

latitud: 21-14S, longitud: 175-09W, altitud: 38 m

Observación

El informe se hizo hace 40 minutos, a las 05:00 UTC
Viento 4 kt del sur-suroeste
Temperatura 21°C
Humedad 94%
Presión 1014 hPa
Visibilidad 10 km o más
Escasas nubes a una altura de 1600 ft
Cielo nuboso a una altura de 12000 ft

METAR: NFTF 190500Z 21004KT 9999 FEW016 BKN120 21/20 Q1014

Hora: 18:40 (05:40 UTC)

Pronóstico

El informe se hizo hace 24 minutos, a las 05:16 UTC
Pronóstico válido del 19 a las 06 UTC al 20 a las 06 UTC
Viento 3 kt con dirección variable
Visibilidad 10 km o más
Escasas nubes a una altura de 1600 ft
Cielo nuboso a una altura de 10000 ft

TAF: NFTF 190516Z 1906/2006 VRB03KT 9999 FEW016 BKN100

Observaciones y pronósticos meteorológicos de más de 4000 aeropuertos (mensajes METAR y TAF).

Los puntos amarillos y rojos representan las estaciones disponibles.

Ponga el ratón en el punto deseado para ver el nombre de la estación.

Haga clic para ver las observaciones y los pronósticos meteorológicos.

Para cambiar el mapa : haga clic en los botones verdes con una cruz de color negro para hacer un zoom, en el botón verde con un guión para alejar o en las flechas verdes para mapas adyacentes.


METAR-TAF: